Time;durP1;ratioP1;P1;durP2;ratioP2;P2;SDS_P1;SDS_P2;PMS_P1;PMS_P2;Temp;Humidity;BMP_temperature;BMP_pressure;BME280_temperature;BME280_humidity;BME280_pressure;Samples;Min_cycle;Max_cycle;Signal;HPM_P1;HPM_P2
2022/11/02 00:04:43;;;;;;;5.10;1.45;;;;;;;10.58;66.06;100824.00;10213951;28;20150;-61
2022/11/02 00:09:45;;;;;;;4.88;1.52;;;;;;;10.52;66.39;100820.13;10223095;28;20114;-63
2022/11/02 00:14:46;;;;;;;5.05;1.52;;;;;;;10.50;66.51;100811.38;10207830;28;20721;-61
2022/11/02 00:19:48;;;;;;;10.63;1.42;;;;;;;10.47;66.40;100811.72;10210193;28;20051;-62
2022/11/02 00:24:50;;;;;;;10.32;3.13;;;;;;;10.42;66.64;100819.41;10210497;28;20142;-62
2022/11/02 00:29:51;;;;;;;9.73;1.95;;;;;;;10.40;66.67;100818.75;10210713;28;20484;-62
2022/11/02 00:34:52;;;;;;;7.95;1.60;;;;;;;10.39;66.58;100811.72;10212695;28;20070;-62
2022/11/02 00:39:54;;;;;;;9.43;1.38;;;;;;;10.40;67.19;100805.31;10197211;28;20550;-61
2022/11/02 00:44:55;;;;;;;5.07;1.95;;;;;;;10.37;66.93;100805.63;10213232;28;20141;-62
2022/11/02 00:49:56;;;;;;;10.38;1.40;;;;;;;10.35;67.11;100808.50;10204122;28;20107;-62
2022/11/02 00:54:58;;;;;;;12.65;2.10;;;;;;;10.35;67.14;100807.63;10206392;28;20059;-62
2022/11/02 00:59:59;;;;;;;4.43;1.27;;;;;;;10.28;67.21;100816.31;10196410;29;20859;-63
2022/11/02 01:05:01;;;;;;;7.03;1.60;;;;;;;10.23;67.65;100802.53;10211167;28;20142;-61
2022/11/02 01:10:07;;;;;;;7.90;3.03;;;;;;;10.26;67.52;100796.00;10208826;28;20147;-63
2022/11/02 01:15:09;;;;;;;6.30;1.58;;;;;;;10.28;67.53;100797.50;10200603;28;20051;-62
2022/11/02 01:20:10;;;;;;;9.25;1.35;;;;;;;10.30;67.45;100794.69;10204024;28;20059;-62
2022/11/02 01:25:12;;;;;;;6.95;1.98;;;;;;;10.29;67.81;100796.53;10210485;28;20098;-62
2022/11/02 01:30:13;;;;;;;9.35;1.67;;;;;;;10.29;67.58;100793.84;10216635;28;20143;-62
2022/11/02 01:35:15;;;;;;;7.57;2.05;;;;;;;10.29;67.67;100788.47;10210088;29;20155;-61
2022/11/02 01:40:17;;;;;;;7.10;1.75;;;;;;;10.29;67.53;100793.84;10198928;28;20657;-59
2022/11/02 01:45:18;;;;;;;10.07;2.05;;;;;;;10.28;67.83;100783.25;10207400;28;20047;-62
2022/11/02 01:50:24;;;;;;;11.95;2.00;;;;;;;10.30;67.93;100789.31;10208932;28;20053;-60
2022/11/02 01:55:29;;;;;;;7.57;2.30;;;;;;;10.30;67.82;100787.47;10206808;28;20669;-62
2022/11/02 02:00:31;;;;;;;5.25;1.83;;;;;;;10.31;68.34;100780.28;10208351;28;20589;-62
2022/11/02 02:05:34;;;;;;;9.00;1.60;;;;;;;10.34;67.76;100762.97;10221138;28;20631;-63
2022/11/02 02:10:36;;;;;;;7.55;2.50;;;;;;;10.33;67.96;100780.94;10215845;28;20456;-60
2022/11/02 02:15:54;;;;;;;7.03;2.50;;;;;;;10.31;67.93;100767.66;10219962;28;20051;-61
2022/11/02 02:21:14;;;;;;;;;;;;;;;10.34;67.64;100754.91;10213709;28;20048;-61
2022/11/02 02:26:58;;;;;;;10.55;2.08;;;;;;;10.34;67.95;100744.16;10220403;28;19922;-60
2022/11/02 02:32:15;;;;;;;11.43;2.80;;;;;;;10.33;68.01;100743.34;10216579;28;20586;-60
2022/11/02 02:37:23;;;;;;;9.75;2.35;;;;;;;10.31;68.21;100742.66;10213882;28;20046;-60
2022/11/02 02:42:41;;;;;;;9.90;2.88;;;;;;;10.27;68.28;100742.09;10214368;28;20530;-61
2022/11/02 02:47:48;;;;;;;13.02;2.45;;;;;;;10.27;68.36;100749.34;10212342;29;20054;-59
2022/11/02 02:52:51;;;;;;;9.85;2.42;;;;;;;10.25;68.47;100743.28;10211334;28;20134;-60
2022/11/02 02:57:54;;;;;;;8.57;2.15;;;;;;;10.29;68.35;100748.16;10210009;28;20646;-59
2022/11/02 03:03:02;;;;;;;9.85;5.05;;;;;;;10.30;68.68;100740.97;10223845;28;20142;-60
2022/11/02 03:08:09;;;;;;;6.60;3.78;;;;;;;10.41;68.79;100755.94;10216920;28;20039;-61
2022/11/02 03:13:54;;;;;;;10.40;3.53;;;;;;;10.52;68.76;100751.09;10209981;28;20063;-60
2022/11/02 03:19:10;;;;;;;10.65;3.75;;;;;;;10.69;68.62;100751.09;10211536;28;20565;-60
2022/11/02 03:24:24;;;;;;;9.30;3.60;;;;;;;10.83;68.78;100763.88;10213997;28;20105;-60
2022/11/02 03:29:37;;;;;;;6.65;2.78;;;;;;;10.91;68.68;100755.81;10211521;29;20566;-60
2022/11/02 03:34:53;;;;;;;10.80;2.60;;;;;;;11.05;68.83;100756.97;10206499;28;20140;-59
2022/11/02 03:40:13;;;;;;;7.68;2.63;;;;;;;11.14;69.07;100743.50;10216583;29;20154;-59
2022/11/02 03:45:20;;;;;;;15.57;3.40;;;;;;;11.25;68.95;100733.25;10201837;28;20052;-60
2022/11/02 03:50:22;;;;;;;13.77;2.93;;;;;;;11.35;69.43;100768.03;10216699;28;20142;-59
2022/11/02 03:55:36;;;;;;;12.18;3.13;;;;;;;11.44;69.51;100776.97;10208801;28;20047;-61
2022/11/02 04:00:46;;;;;;;12.93;3.40;;;;;;;11.59;70.05;100763.63;10212324;28;20052;-59
2022/11/02 04:05:48;;;;;;;17.63;2.88;;;;;;;11.74;69.61;100777.22;10203721;28;20131;-59
2022/11/02 04:16:12;;;;;;;11.35;2.45;;;;;;;11.99;69.62;100786.09;10210503;28;20155;-60
2022/11/02 04:21:14;;;;;;;11.82;2.90;;;;;;;12.04;69.81;100787.22;10201480;28;20150;-60
2022/11/02 04:26:15;;;;;;;11.82;3.40;;;;;;;12.14;69.29;100789.72;10202244;28;20552;-60
2022/11/02 04:31:16;;;;;;;11.35;3.00;;;;;;;12.19;69.18;100795.44;10207068;28;20463;-59
2022/11/02 04:36:18;;;;;;;6.70;2.25;;;;;;;12.19;68.88;100795.44;10205836;28;20138;-60
2022/11/02 04:46:43;;;;;;;13.30;2.97;;;;;;;12.18;68.93;100807.22;10212778;28;20048;-61
2022/11/02 04:51:44;;;;;;;11.15;2.90;;;;;;;12.17;68.52;100812.81;10206687;28;20111;-60
2022/11/02 04:56:50;;;;;;;12.82;2.20;;;;;;;12.15;68.49;100809.44;10205567;28;20106;-60
2022/11/02 05:01:51;;;;;;;10.07;2.10;;;;;;;12.05;68.60;100826.66;10200801;28;20130;-61
2022/11/02 05:06:53;;;;;;;9.48;2.60;;;;;;;11.97;68.72;100825.84;10215038;28;20530;-60
2022/11/02 05:12:03;;;;;;;9.20;2.40;;;;;;;11.90;68.73;100825.69;10213885;28;20135;-60
2022/11/02 05:17:05;;;;;;;12.95;3.05;;;;;;;11.83;68.89;100830.06;10204163;28;20839;-61
2022/11/02 05:22:06;;;;;;;10.20;3.00;;;;;;;11.78;68.84;100824.34;10217585;28;20518;-61
2022/11/02 05:27:09;;;;;;;10.98;2.83;;;;;;;11.68;69.25;100828.06;10199242;28;20044;-61
2022/11/02 05:32:10;;;;;;;12.48;3.67;;;;;;;11.57;69.46;100825.75;10205184;28;20082;-60
2022/11/02 05:37:12;;;;;;;11.88;3.88;;;;;;;11.46;69.70;100839.53;10220267;28;20043;-61
2022/11/02 05:42:13;;;;;;;12.65;3.55;;;;;;;11.42;69.28;100840.91;10218557;28;20053;-60
2022/11/02 05:47:14;;;;;;;12.27;3.40;;;;;;;11.35;69.63;100846.09;10203356;29;20063;-61
2022/11/02 05:52:16;;;;;;;12.73;4.60;;;;;;;11.22;69.73;100846.63;10212063;28;20067;-61
2022/11/02 05:57:18;;;;;;;11.27;4.60;;;;;;;11.11;69.81;100855.84;10201892;28;20074;-60
2022/11/02 06:02:19;;;;;;;8.70;3.97;;;;;;;11.08;69.99;100858.88;10203272;29;20142;-61
2022/11/02 06:07:25;;;;;;;15.25;4.72;;;;;;;11.01;69.67;100865.94;10195148;28;20137;-60
2022/11/02 06:12:26;;;;;;;9.25;4.22;;;;;;;10.96;69.83;100873.69;10212080;28;20462;-61
2022/11/02 06:17:34;;;;;;;14.05;4.80;;;;;;;10.90;69.87;100875.19;10214002;28;20118;-60
2022/11/02 06:22:40;;;;;;;14.23;4.60;;;;;;;10.90;70.06;100871.66;10214856;28;20123;-60
2022/11/02 06:27:51;;;;;;;15.00;3.90;;;;;;;10.84;69.82;100883.91;10206297;28;20046;-59
2022/11/02 06:32:53;;;;;;;12.13;4.30;;;;;;;10.83;70.25;100882.22;10214910;28;20082;-60
2022/11/02 06:37:54;;;;;;;14.88;3.70;;;;;;;10.82;70.31;100896.69;10208325;28;20130;-60
2022/11/02 06:42:56;;;;;;;9.07;2.53;;;;;;;10.83;70.29;100909.09;10209294;28;20060;-60
2022/11/02 06:48:16;;;;;;;13.55;3.10;;;;;;;10.83;70.37;100917.16;10209367;28;20059;-60
2022/11/02 06:53:17;;;;;;;9.07;2.80;;;;;;;10.84;70.30;100916.19;10210002;28;20071;-60
2022/11/02 06:58:19;;;;;;;11.13;2.22;;;;;;;10.88;70.46;100936.34;10206832;28;20139;-60
2022/11/02 07:03:20;;;;;;;14.23;3.17;;;;;;;10.95;70.44;100950.00;10208819;28;20550;-59
2022/11/02 07:08:22;;;;;;;9.68;2.70;;;;;;;11.00;70.77;100957.56;10211991;28;20103;-59
2022/11/02 07:13:24;;;;;;;14.02;3.95;;;;;;;11.04;70.79;100948.19;10200548;28;20602;-59
2022/11/02 07:18:25;;;;;;;13.90;2.70;;;;;;;11.09;70.82;100959.28;10200889;28;20056;-60
2022/11/02 07:23:27;;;;;;;15.38;3.08;;;;;;;11.17;71.04;100961.13;10208712;28;20147;-60
2022/11/02 07:28:29;;;;;;;10.23;2.10;;;;;;;11.23;71.07;100964.00;10211632;28;20053;-60
2022/11/02 07:33:31;;;;;;;10.88;1.70;;;;;;;11.36;71.43;100977.00;10204000;28;20051;-60
2022/11/02 07:38:32;;;;;;;11.23;2.80;;;;;;;11.42;71.49;100989.78;10197703;29;20509;-60
2022/11/02 07:43:34;;;;;;;8.77;2.10;;;;;;;11.54;71.40;100984.94;10207223;28;20529;-60
2022/11/02 07:48:37;;;;;;;9.77;2.35;;;;;;;11.71;71.25;100983.09;10202821;28;20052;-60
2022/11/02 07:53:39;;;;;;;9.65;2.50;;;;;;;11.85;71.60;100986.97;10204750;28;20047;-60
2022/11/02 07:58:40;;;;;;;12.25;2.58;;;;;;;11.95;71.51;100987.66;10213062;29;20049;-60
2022/11/02 08:03:42;;;;;;;13.38;3.50;;;;;;;12.05;71.40;100995.59;10213177;28;20069;-60
2022/11/02 08:08:43;;;;;;;14.65;2.80;;;;;;;12.12;71.03;100996.56;10204543;29;20127;-60
2022/11/02 08:13:44;;;;;;;9.90;2.45;;;;;;;12.26;71.26;100997.72;10205482;28;20142;-60
2022/11/02 08:18:46;;;;;;;10.20;2.00;;;;;;;12.37;71.34;100997.38;10204739;28;20048;-60
2022/11/02 08:23:47;;;;;;;14.40;2.22;;;;;;;12.53;71.19;101009.16;10202000;28;20079;-60
2022/11/02 08:28:49;;;;;;;8.07;2.00;;;;;;;12.84;70.86;101011.91;10206378;28;20047;-60
2022/11/02 08:33:52;;;;;;;8.35;2.63;;;;;;;13.17;70.21;101009.06;10198804;28;20130;-61
2022/11/02 08:38:54;;;;;;;9.45;2.17;;;;;;;13.38;69.78;101014.69;10213741;28;20126;-60
2022/11/02 08:43:56;;;;;;;14.27;2.63;;;;;;;13.66;69.49;101015.03;10206369;28;20052;-60
2022/11/02 08:48:57;;;;;;;11.45;2.03;;;;;;;13.82;69.30;101016.78;10213478;28;20471;-60
2022/11/02 08:53:59;;;;;;;9.38;1.45;;;;;;;13.97;68.96;101016.00;10214131;28;20577;-60
2022/11/02 08:59:00;;;;;;;10.02;1.05;;;;;;;14.15;68.40;101015.66;10198481;28;20059;-60
2022/11/02 09:04:02;;;;;;;8.15;1.08;;;;;;;14.38;67.86;101019.16;10207304;28;20083;-60
2022/11/02 09:09:03;;;;;;;10.02;1.70;;;;;;;14.52;67.40;101028.31;10210682;28;20486;-60
2022/11/02 09:14:06;;;;;;;4.32;0.70;;;;;;;14.74;66.72;101014.91;10204181;28;20138;-59
2022/11/02 09:19:07;;;;;;;9.52;1.35;;;;;;;14.91;66.33;101024.53;10207313;28;20102;-59
2022/11/02 09:24:09;;;;;;;8.65;0.90;;;;;;;15.08;65.69;101012.44;10207002;28;20162;-60
2022/11/02 09:29:10;;;;;;;10.95;1.23;;;;;;;15.17;65.50;101017.78;10203884;28;20587;-60
2022/11/02 09:34:12;;;;;;;7.32;1.23;;;;;;;15.19;65.32;101013.00;10202711;28;20060;-60
2022/11/02 09:39:13;;;;;;;6.43;0.90;;;;;;;15.40;64.56;101017.59;10206836;28;20482;-59
2022/11/02 09:44:26;;;;;;;10.13;0.90;;;;;;;15.46;63.85;101019.53;10203553;28;20143;-60
2022/11/02 09:49:29;;;;;;;8.00;1.35;;;;;;;15.63;63.30;101012.84;10206944;28;20048;-60
2022/11/02 09:54:46;;;;;;;6.43;0.60;;;;;;;15.56;62.17;101024.66;10213806;28;20045;-59
2022/11/02 09:59:48;;;;;;;7.22;0.70;;;;;;;15.88;61.81;101036.03;10213969;28;20071;-60
2022/11/02 10:05:15;;;;;;;8.27;0.47;;;;;;;15.85;60.78;101037.28;10204772;28;20053;-60
2022/11/02 10:10:19;;;;;;;4.77;1.07;;;;;;;15.87;59.87;101035.22;10217710;28;20052;-60
2022/11/02 10:15:27;;;;;;;8.70;0.75;;;;;;;16.07;59.55;101038.09;10214448;28;20512;-60
2022/11/02 10:20:43;;;;;;;6.47;0.82;;;;;;;16.17;59.24;101041.34;10208266;28;20039;-60
2022/11/02 10:25:46;;;;;;;7.88;0.40;;;;;;;16.09;57.89;101051.47;10215170;28;20195;-60
2022/11/02 10:30:49;;;;;;;5.88;0.93;;;;;;;16.30;57.54;101037.06;10208958;28;20083;-60
2022/11/02 10:36:10;;;;;;;7.43;0.65;;;;;;;16.33;56.50;101048.38;10217901;28;20151;-60
2022/11/02 10:41:37;;;;;;;8.43;0.73;;;;;;;16.54;55.76;101047.44;10207623;29;20399;-60
2022/11/02 10:46:57;;;;;;;5.10;0.32;;;;;;;16.64;54.75;101036.25;10211235;28;20067;-60
2022/11/02 10:51:59;;;;;;;5.57;0.68;;;;;;;16.64;54.32;101037.06;10208893;28;20046;-59
2022/11/02 10:57:10;;;;;;;4.57;0.82;;;;;;;16.49;53.56;101036.38;10203384;28;20138;-59
2022/11/02 11:02:13;;;;;;;6.05;0.43;;;;;;;16.65;53.46;101030.63;10204290;28;20047;-60
2022/11/02 11:07:25;;;;;;;6.93;1.05;;;;;;;16.75;52.97;101034.88;10210343;28;20079;-60
2022/11/02 11:12:31;;;;;;;5.43;0.38;;;;;;;17.01;52.46;101029.59;10205722;28;20044;-60
2022/11/02 11:17:36;;;;;;;3.03;0.35;;;;;;;17.18;51.93;101018.38;10213298;28;20051;-60
2022/11/02 11:23:16;;;;;;;6.07;0.30;;;;;;;17.38;51.54;101029.34;10212776;28;20061;-61
2022/11/02 11:28:48;;;;;;;3.67;0.60;;;;;;;17.64;50.87;101021.22;10200170;29;20067;-60
2022/11/02 11:33:53;;;;;;;7.00;0.30;;;;;;;17.70;50.28;101018.75;10212197;28;20083;-61
2022/11/02 11:38:57;;;;;;;3.97;0.50;;;;;;;17.77;49.87;101009.56;10211605;29;20139;-61
2022/11/02 11:44:00;;;;;;;5.63;0.50;;;;;;;17.56;48.71;101013.28;10209053;28;20080;-61
2022/11/02 11:49:01;;;;;;;2.95;0.80;;;;;;;17.53;49.27;101019.09;10206817;28;20142;-60
2022/11/02 11:54:26;;;;;;;5.32;0.40;;;;;;;17.57;48.86;101023.09;10207878;29;20477;-60
2022/11/02 11:59:50;;;;;;;2.50;0.50;;;;;;;17.56;49.21;101020.59;10201248;29;20048;-61
2022/11/02 12:05:12;;;;;;;8.00;1.33;;;;;;;17.74;48.94;101003.69;10204282;28;20914;-61
2022/11/02 12:10:41;;;;;;;3.72;0.32;;;;;;;17.60;49.05;101009.09;10209007;28;20047;-61
2022/11/02 12:16:11;;;;;;;7.85;1.08;;;;;;;17.58;48.82;101002.19;10212815;28;20039;-61
2022/11/02 12:21:27;;;;;;;4.30;0.40;;;;;;;17.42;48.40;100998.81;10205444;28;20135;-60
2022/11/02 12:26:58;;;;;;;5.63;0.40;;;;;;;17.39;48.21;100991.06;10202598;28;20053;-61
2022/11/02 12:32:23;;;;;;;8.25;0.50;;;;;;;17.22;48.06;100989.78;10206615;29;20738;-60
2022/11/02 12:37:44;;;;;;;7.10;0.50;;;;;;;17.18;47.68;100997.50;10206580;28;20084;-60
2022/11/02 12:43:02;;;;;;;13.52;1.20;;;;;;;17.25;47.57;100995.63;10209103;28;20538;-60
2022/11/02 12:48:05;;;;;;;5.95;0.57;;;;;;;17.23;47.18;101005.84;10204280;28;20048;-60
2022/11/02 12:53:25;;;;;;;2.80;0.40;;;;;;;17.31;46.65;101017.59;10216127;28;20118;-60
2022/11/02 12:58:31;;;;;;;7.07;0.60;;;;;;;17.45;46.52;100994.84;10195436;28;20126;-60
2022/11/02 13:03:49;;;;;;;5.80;0.43;;;;;;;17.60;46.30;100995.50;10198521;28;20562;-60
2022/11/02 13:09:00;;;;;;;8.10;0.80;;;;;;;17.72;46.35;100989.47;10199147;28;20048;-61
2022/11/02 13:14:08;;;;;;;5.30;0.40;;;;;;;17.82;45.92;100989.88;10198614;28;20131;-61
2022/11/02 13:19:23;;;;;;;15.40;2.65;;;;;;;17.81;45.96;100980.91;10205771;28;20047;-61
2022/11/02 13:24:33;;;;;;;5.78;0.70;;;;;;;17.81;45.87;100975.47;10206549;28;20130;-60
2022/11/02 13:29:45;;;;;;;3.15;0.30;;;;;;;17.72;45.43;100984.03;10209006;28;20122;-60
2022/11/02 13:34:51;;;;;;;4.20;0.50;;;;;;;17.72;45.64;100973.16;10209023;28;20159;-60
2022/11/02 13:39:57;;;;;;;5.38;0.70;;;;;;;17.71;45.10;100964.13;10213643;28;20422;-61
2022/11/02 13:45:35;;;;;;;3.05;0.40;;;;;;;17.75;45.00;100970.84;10214895;28;20055;-60
2022/11/02 13:50:45;;;;;;;2.05;0.30;;;;;;;17.84;44.75;100963.34;10206546;29;20151;-60
2022/11/02 13:55:55;;;;;;;3.22;0.28;;;;;;;17.81;44.42;100958.28;10208626;28;20131;-61
2022/11/02 14:01:03;;;;;;;5.25;1.30;;;;;;;17.94;44.25;100941.16;10212871;28;20150;-61
2022/11/02 14:06:13;;;;;;;4.22;0.30;;;;;;;18.01;44.21;100944.72;10203223;28;20065;-60
2022/11/02 14:11:15;;;;;;;4.72;0.43;;;;;;;17.92;44.48;100962.31;10209081;28;20044;-60
2022/11/02 14:16:41;;;;;;;7.72;0.47;;;;;;;17.88;44.21;100967.31;10207894;28;20134;-60
2022/11/02 14:21:58;;;;;;;6.70;0.50;;;;;;;17.98;44.24;100975.06;10209100;28;20064;-60
2022/11/02 14:27:03;;;;;;;4.60;0.50;;;;;;;17.91;44.00;100972.34;10199235;28;20523;-61
2022/11/02 14:32:16;;;;;;;6.97;0.40;;;;;;;17.91;44.24;100975.06;10210840;28;20530;-60
2022/11/02 14:37:46;;;;;;;5.22;0.40;;;;;;;17.98;44.44;100964.19;10201880;28;20047;-60
2022/11/02 14:42:59;;;;;;;7.70;0.60;;;;;;;17.91;44.34;100964.19;10190756;29;20054;-60
2022/11/02 14:48:03;;;;;;;4.60;0.40;;;;;;;17.80;44.72;100968.34;10207248;28;20063;-60
2022/11/02 14:53:25;;;;;;;3.53;0.77;;;;;;;17.67;44.87;100968.31;10209956;28;20555;-60
2022/11/02 14:58:33;;;;;;;4.60;0.40;;;;;;;17.62;44.71;100960.78;10220888;28;20117;-60
2022/11/02 15:03:38;;;;;;;6.43;0.30;;;;;;;17.67;44.81;100957.44;10209902;28;20151;-60
2022/11/02 15:08:54;;;;;;;4.68;0.30;;;;;;;17.67;45.03;100967.47;10210287;28;20139;-60
2022/11/02 15:13:55;;;;;;;2.90;0.40;;;;;;;17.67;44.71;100973.75;10212345;28;20129;-60
2022/11/02 15:19:36;;;;;;;12.45;2.05;;;;;;;17.57;45.23;100957.84;10216887;28;20054;-59
2022/11/02 15:24:37;;;;;;;5.68;1.13;;;;;;;17.49;45.62;100962.66;10214777;28;20137;-60
2022/11/02 15:29:42;;;;;;;6.15;0.50;;;;;;;17.31;45.67;100955.09;10210273;28;20130;-61
2022/11/02 15:34:48;;;;;;;8.63;1.05;;;;;;;17.08;46.12;100955.44;10197846;28;20158;-60
2022/11/02 15:39:53;;;;;;;5.38;1.40;;;;;;;17.00;46.17;100959.16;10198706;28;20051;-60
2022/11/02 15:45:19;;;;;;;6.75;0.63;;;;;;;16.88;46.48;100963.50;10202777;29;20044;-60
2022/11/02 15:50:53;;;;;;;5.70;0.40;;;;;;;16.73;46.87;100959.03;10202020;29;20055;-60
2022/11/02 15:56:19;;;;;;;6.95;0.40;;;;;;;16.64;46.79;100954.81;10205415;28;20051;-60
2022/11/02 16:01:23;;;;;;;3.22;0.40;;;;;;;16.50;46.80;100947.63;10203817;28;20127;-60
2022/11/02 16:06:39;;;;;;;3.72;0.32;;;;;;;16.38;46.93;100950.91;10201760;28;21712;-60
2022/11/02 16:11:40;;;;;;;6.75;1.00;;;;;;;16.30;47.34;100950.25;10222805;28;20122;-60
2022/11/02 16:16:46;;;;;;;5.00;0.55;;;;;;;16.14;47.49;100935.13;10208324;28;20058;-60
2022/11/02 16:21:49;;;;;;;3.78;0.60;;;;;;;16.02;47.91;100923.97;10211494;28;20141;-60
2022/11/02 16:26:50;;;;;;;7.88;1.10;;;;;;;15.88;48.07;100925.75;10203537;29;20075;-60
2022/11/02 16:31:51;;;;;;;3.58;0.50;;;;;;;15.76;48.14;100924.63;10207196;28;20052;-61
2022/11/02 16:36:53;;;;;;;6.15;0.50;;;;;;;15.65;48.49;100934.91;10198109;28;20470;-61
2022/11/02 16:41:57;;;;;;;6.85;1.42;;;;;;;15.51;48.81;100924.16;10202546;29;20115;-60
2022/11/02 16:47:15;;;;;;;8.07;1.77;;;;;;;15.37;49.01;100929.44;10202335;28;20050;-62
2022/11/02 16:52:22;;;;;;;11.45;1.25;;;;;;;15.26;49.27;100928.09;10202019;28;20432;-61
2022/11/02 16:57:27;;;;;;;7.20;1.15;;;;;;;15.12;49.76;100931.66;10198843;29;20059;-61
2022/11/02 17:02:38;;;;;;;5.20;1.08;;;;;;;14.99;50.26;100934.25;10215272;28;20047;-62
2022/11/02 17:07:41;;;;;;;10.00;1.80;;;;;;;14.81;50.83;100930.06;10207343;28;20051;-62
2022/11/02 17:12:44;;;;;;;11.55;1.30;;;;;;;14.64;51.05;100920.47;10210506;28;20166;-62
2022/11/02 17:17:46;;;;;;;10.88;2.13;;;;;;;14.55;51.14;100926.97;10213233;28;20155;-62
2022/11/02 17:22:57;;;;;;;7.88;1.35;;;;;;;14.40;51.72;100922.44;10211176;28;20074;-62
2022/11/02 17:28:00;;;;;;;12.77;3.05;;;;;;;14.23;52.52;100934.44;10204898;28;20156;-61
2022/11/02 17:33:23;;;;;;;11.10;4.20;;;;;;;13.97;53.29;100943.00;10206972;29;20046;-61
2022/11/02 17:38:26;;;;;;;9.02;4.20;;;;;;;13.85;53.60;100938.03;10205488;28;20059;-62
2022/11/02 17:43:27;;;;;;;15.93;5.45;;;;;;;13.75;53.85;100937.47;10201591;28;20135;-62
2022/11/02 17:48:29;;;;;;;14.98;5.05;;;;;;;13.63;54.24;100945.16;10202072;29;20106;-62
2022/11/02 17:53:31;;;;;;;10.25;5.63;;;;;;;13.47;54.91;100938.03;10211598;29;20054;-62
2022/11/02 17:58:32;;;;;;;8.20;2.85;;;;;;;13.31;55.30;100943.53;10204102;29;20048;-62
2022/11/02 18:03:34;;;;;;;16.40;5.22;;;;;;;13.15;55.75;100936.38;10200533;28;20059;-62
2022/11/02 18:09:09;;;;;;;11.73;3.05;;;;;;;13.02;56.39;100934.22;10210405;29;20057;-62
2022/11/02 18:13:56;;;;;;;18.00;5.05;;;;;;;12.86;56.88;100931.63;10210639;29;20612;-61
2022/11/02 18:18:58;;;;;;;11.00;3.08;;;;;;;12.71;56.93;100936.91;10208096;28;20152;-62
2022/11/02 18:23:59;;;;;;;14.20;2.03;;;;;;;12.55;57.20;100937.00;10205452;28;20477;-62
2022/11/02 18:29:03;;;;;;;12.82;3.58;;;;;;;12.36;58.30;100930.13;10209877;29;20079;-62
2022/11/02 18:34:04;;;;;;;9.85;3.45;;;;;;;12.21;58.79;100933.56;10211955;28;20051;-61
2022/11/02 18:39:05;;;;;;;12.65;3.67;;;;;;;12.13;58.65;100936.28;10206545;29;20069;-62
2022/11/02 18:44:08;;;;;;;12.52;2.75;;;;;;;12.04;59.16;100934.59;10205099;29;20055;-62
2022/11/02 18:49:15;;;;;;;11.25;2.60;;;;;;;11.87;59.75;100934.59;10214561;28;20103;-61
2022/11/02 18:54:17;;;;;;;10.70;2.55;;;;;;;11.82;60.21;100931.56;10202056;29;20051;-61
2022/11/02 18:59:18;;;;;;;8.05;3.22;;;;;;;11.83;60.00;100933.25;10203170;28;20516;-62
2022/11/02 19:04:19;;;;;;;18.88;3.47;;;;;;;11.69;60.44;100932.09;10202545;29;20146;-61
2022/11/02 19:09:22;;;;;;;16.17;4.53;;;;;;;11.59;60.63;100920.66;10206866;28;20139;-61
2022/11/02 19:14:24;;;;;;;12.35;4.38;;;;;;;11.43;61.16;100912.56;10200898;28;20134;-61
2022/11/02 19:19:25;;;;;;;13.07;4.80;;;;;;;11.33;61.03;100907.34;10200325;28;20138;-61
2022/11/02 19:24:27;;;;;;;13.43;5.72;;;;;;;11.27;61.11;100911.53;10199413;29;20406;-61
2022/11/02 19:29:28;;;;;;;12.05;5.90;;;;;;;11.09;61.67;100914.38;10207613;29;20050;-61
2022/11/02 19:34:29;;;;;;;19.60;6.18;;;;;;;11.03;61.85;100892.69;10195577;29;20619;-62
2022/11/02 19:39:31;;;;;;;11.13;5.55;;;;;;;10.98;62.02;100898.56;10199079;29;20754;-61
2022/11/02 19:44:33;;;;;;;20.30;6.43;;;;;;;10.87;62.44;100897.00;10196414;28;20146;-61
2022/11/02 19:49:42;;;;;;;15.85;5.75;;;;;;;10.78;62.74;100879.19;10201357;29;20052;-61
2022/11/02 19:54:43;;;;;;;13.98;7.10;;;;;;;10.71;62.53;100886.22;10196313;28;20149;-61
2022/11/02 19:59:45;;;;;;;16.17;6.68;;;;;;;10.65;62.82;100884.19;10201465;29;20051;-61
2022/11/02 20:04:46;;;;;;;15.13;4.85;;;;;;;10.57;62.93;100885.00;10189850;29;20406;-61
2022/11/02 20:09:48;;;;;;;12.82;4.40;;;;;;;10.51;62.95;100885.66;10209337;28;20543;-61
2022/11/02 20:14:49;;;;;;;16.60;5.03;;;;;;;10.35;63.57;100893.63;10196763;29;20043;-61
2022/11/02 20:19:50;;;;;;;16.27;6.43;;;;;;;10.26;63.92;100890.88;10199439;29;20126;-61
2022/11/02 20:24:52;;;;;;;23.15;7.13;;;;;;;10.20;64.23;100885.31;10216130;28;20585;-60
2022/11/02 20:29:53;;;;;;;25.17;8.95;;;;;;;9.98;64.48;100887.53;10197951;28;20051;-62
2022/11/02 20:34:54;;;;;;;26.58;10.57;;;;;;;10.00;64.75;100898.97;10204956;29;20569;-61
2022/11/02 20:39:56;;;;;;;19.50;5.68;;;;;;;10.04;64.46;100896.81;10193232;29;20178;-61
2022/11/02 20:44:57;;;;;;;15.23;4.57;;;;;;;10.00;64.81;100887.38;10208770;29;20057;-62
2022/11/02 20:49:59;;;;;;;10.68;4.85;;;;;;;10.06;64.69;100886.75;10195151;28;20059;-61
2022/11/02 20:55:00;;;;;;;10.02;4.18;;;;;;;10.06;64.68;100876.84;10206314;29;20349;-61
2022/11/02 21:00:03;;;;;;;10.55;2.78;;;;;;;10.00;64.91;100873.97;10194267;29;20064;-61
2022/11/02 21:05:04;;;;;;;8.18;2.50;;;;;;;9.91;64.47;100868.53;10206747;28;20118;-61
2022/11/02 21:10:07;;;;;;;14.48;3.45;;;;;;;9.87;64.84;100877.91;10200994;29;20499;-62
2022/11/02 21:15:09;;;;;;;10.55;4.50;;;;;;;9.85;64.85;100865.63;10196491;29;20044;-62
2022/11/02 21:20:13;;;;;;;11.30;3.50;;;;;;;9.69;65.32;100866.38;10199756;28;20096;-61
2022/11/02 21:25:34;;;;;;;9.27;3.63;;;;;;;9.69;65.38;100869.06;10206026;29;20043;-60
2022/11/02 21:30:36;;;;;;;10.75;3.88;;;;;;;9.67;65.24;100869.22;10200909;28;20047;-61
2022/11/02 21:35:37;;;;;;;7.80;2.85;;;;;;;9.64;65.37;100853.44;10203863;29;20142;-60
2022/11/02 21:40:39;;;;;;;13.27;3.85;;;;;;;9.48;65.69;100861.38;10205291;28;20482;-61
2022/11/02 21:46:08;;;;;;;14.07;4.18;;;;;;;9.48;65.53;100851.47;10204567;28;20126;-61
2022/11/02 21:51:20;;;;;;;14.52;4.57;;;;;;;9.43;65.56;100844.88;10178083;29;20062;-62
2022/11/02 21:56:26;;;;;;;23.92;5.43;;;;;;;9.28;66.25;100844.59;10182660;28;20052;-62
2022/11/02 22:01:47;;;;;;;19.50;5.57;;;;;;;9.30;66.28;100832.72;10181233;29;20149;-62
2022/11/02 22:06:50;;;;;;;10.35;3.33;;;;;;;9.42;66.16;100824.41;10180713;29;20549;-61
2022/11/02 22:17:12;;;;;;;13.43;4.00;;;;;;;9.55;66.30;100816.78;10179784;28;20075;-61
2022/11/02 22:22:33;;;;;;;10.13;4.45;;;;;;;9.52;66.46;100827.84;10179751;28;20052;-62
2022/11/02 22:27:35;;;;;;;9.50;3.72;;;;;;;9.61;66.38;100809.97;10178768;29;20046;-62
2022/11/02 22:32:36;;;;;;;8.18;3.80;;;;;;;9.69;66.31;100810.00;10180015;28;20047;-62
2022/11/02 22:42:57;;;;;;;9.73;3.40;;;;;;;9.73;66.10;100796.13;10185569;29;20050;-61
2022/11/02 22:47:59;;;;;;;9.65;3.20;;;;;;;9.80;66.42;100782.88;10213506;28;20494;-61
2022/11/02 22:53:00;;;;;;;18.13;4.00;;;;;;;9.68;66.66;100781.50;10212006;28;20142;-62
2022/11/02 22:58:01;;;;;;;8.55;2.90;;;;;;;9.50;67.17;100765.47;10212650;28;20151;-61
2022/11/02 23:03:03;;;;;;;5.88;3.20;;;;;;;9.68;66.85;100771.59;10204194;28;20608;-60
2022/11/02 23:08:04;;;;;;;10.13;3.67;;;;;;;9.68;66.97;100776.13;10209014;28;20405;-60
2022/11/02 23:13:06;;;;;;;10.73;3.42;;;;;;;9.73;66.73;100774.66;10210981;28;20070;-61
2022/11/02 23:18:08;;;;;;;7.00;2.50;;;;;;;9.49;67.20;100769.13;10210277;29;20051;-61
2022/11/02 23:33:49;;;;;;;11.77;2.47;;;;;;;9.29;67.64;100761.28;10208224;28;20085;-61
2022/11/02 23:44:10;;;;;;;10.85;2.40;;;;;;;9.37;67.70;100760.50;10211464;28;20432;-60
2022/11/02 23:49:16;;;;;;;10.48;2.53;;;;;;;9.41;67.83;100756.50;10206403;28;20465;-60
2022/11/02 23:59:37;;;;;;;11.70;3.00;;;;;;;9.39;67.73;100750.44;10206083;28;20067;-60
